map of RBO home
RBO - Airport
Location
City:  Roboré, Chiquitos, Santa Cruz, Bolivia
Name:Roboré Airport
ICAO:SLRB
IATA:RBO

Details
Type:Airport (Aerodrome, Airfield)
Latitude:18°19'39"S (-18.327499)
Longitude:59°45'56"W (-59.765555)
Elevation:905 ft (276 m)
Variation:14.55°W (WMM2015 magnetic declination)
-0.18° annual change
Runways:1
Longest:3937 × 295 ft (1200 × 90 m)

Time
Time Zone:UTC-4
Local Time:

Weather
METAR:SLRB 221600Z 00000KT 9999 BKN020 32/24 Q1012

Related Locations
Nearby:
Farthest:LAO: 12429 mi / 20003 km
Laoag [Intl], Luzon Island, PH

Find:

   beyond  
but within

Other Information
Maps:
NOTAMs:
Links:
Sources:

  
  • flag of Bolivia
  • flag of Santa Cruz
  

Sectional Chart

Flight Planning
at skyvector.com

Satellite Image

Google Maps Satellite view

 

Copyright © 2004-2018 Karl L. Swartz. All rights reserved.
The Great Circle Mapper name and logo are trademarks of the Great Circle Mapper.
All other trademarks mentioned herein belong to their respective owners.
Please see credits for attibutions and further copyright information.

  Follow gcmap on Facebook Follow gcmap on Twitter Follow gcmap on Google+ GCmap on LinkedIn

hCard Microformat

Geo Microformat